Time;durP1;ratioP1;P1;durP2;ratioP2;P2;SDS_P1;SDS_P2;PMS_P1;PMS_P2;Temp;Humidity;BMP_temperature;BMP_pressure;BME280_temperature;BME280_humidity;BME280_pressure;Samples;Min_cycle;Max_cycle;Signal;HPM_P1;HPM_P2
2023/05/17 00:02:12;;;;;;;13.33;5.77;;;;;;;16.52;49.44;100448.36;124664;1099;104613;-79
2023/05/17 00:04:40;;;;;;;12.10;5.57;;;;;;;16.48;50.32;100446.53;124580;1099;104240;-79
2023/05/17 00:07:09;;;;;;;13.00;5.60;;;;;;;16.47;49.65;100450.08;124387;1098;104239;-80
2023/05/17 00:09:37;;;;;;;11.43;5.93;;;;;;;16.46;50.50;100450.94;124918;1099;104259;-80
2023/05/17 00:12:06;;;;;;;14.37;6.00;;;;;;;16.46;50.30;100442.11;124516;1099;104243;-79
2023/05/17 00:14:34;;;;;;;14.07;6.33;;;;;;;16.46;50.59;100450.06;124216;1099;104223;-78
2023/05/17 00:17:03;;;;;;;12.60;6.30;;;;;;;16.47;50.40;100446.52;124611;1099;104270;-80
2023/05/17 00:19:31;;;;;;;11.27;6.33;;;;;;;16.48;50.71;100443.01;124551;1099;104270;-78
2023/05/17 00:22:00;;;;;;;13.53;5.60;;;;;;;16.46;50.53;100450.94;124621;1098;104214;-78
2023/05/17 00:24:28;;;;;;;14.47;5.90;;;;;;;16.44;50.78;100450.05;124526;1099;104338;-79
2023/05/17 00:26:56;;;;;;;12.90;6.00;;;;;;;16.43;51.08;100456.20;124573;1099;104357;-80
2023/05/17 00:29:25;;;;;;;13.40;6.07;;;;;;;16.44;51.01;100450.05;123971;1099;104303;-78
2023/05/17 00:31:53;;;;;;;15.10;5.57;;;;;;;16.46;51.09;100456.23;123937;1099;104351;-78
2023/05/17 00:34:21;;;;;;;13.43;5.53;;;;;;;16.48;50.34;100457.13;123955;1099;104267;-78
2023/05/17 00:36:50;;;;;;;11.90;5.33;;;;;;;16.48;50.49;100454.48;123722;1099;104294;-79
2023/05/17 00:39:18;;;;;;;12.03;5.53;;;;;;;16.47;51.43;100455.38;123947;1099;104540;-79
2023/05/17 00:41:47;;;;;;;11.97;5.70;;;;;;;16.46;51.57;100458.01;123660;1099;104357;-78
2023/05/17 00:44:15;;;;;;;13.20;5.50;;;;;;;16.44;50.93;100455.34;123886;1099;104271;-79
2023/05/17 00:46:45;;;;;;;12.23;5.30;;;;;;;16.45;51.03;100454.45;123689;1099;104325;-79
2023/05/17 00:49:13;;;;;;;11.97;5.73;;;;;;;16.47;51.12;100457.11;123941;1099;104416;-77
2023/05/17 00:51:43;;;;;;;15.13;5.77;;;;;;;16.48;51.72;100456.25;123909;1099;104329;-78
2023/05/17 00:54:12;;;;;;;14.20;5.40;;;;;;;16.46;51.41;100461.53;123855;1099;104277;-78
2023/05/17 00:56:41;;;;;;;11.83;5.80;;;;;;;16.48;51.27;100458.90;123976;1099;104268;-79
2023/05/17 00:59:13;;;;;;;14.33;5.47;;;;;;;16.48;51.51;100464.20;124030;1099;104222;-78
2023/05/17 01:01:43;;;;;;;13.47;6.07;;;;;;;16.48;51.28;100466.84;124078;1098;104268;-80
2023/05/17 01:04:14;;;;;;;10.40;5.40;;;;;;;16.48;51.78;100457.13;123967;1098;104267;-79
2023/05/17 01:06:42;;;;;;;11.97;5.70;;;;;;;16.49;51.99;100453.63;124127;1099;104257;-80
2023/05/17 01:09:11;;;;;;;14.93;5.40;;;;;;;16.50;51.79;100463.35;124124;1098;104242;-79
2023/05/17 01:11:53;;;;;;;9.30;5.30;;;;;;;16.50;52.06;100455.41;123946;1099;104235;-79
2023/05/17 01:14:34;;;;;;;11.37;5.83;;;;;;;16.50;52.29;100455.41;123915;1099;104242;-79
2023/05/17 01:17:06;;;;;;;10.40;5.40;;;;;;;16.50;52.50;100446.55;123982;1099;104271;-79
2023/05/17 01:20:03;;;;;;;13.73;6.00;;;;;;;16.50;51.98;100449.20;124171;1098;104242;-80
2023/05/17 01:22:50;;;;;;;14.37;5.37;;;;;;;16.52;52.06;100447.48;124077;1099;104654;-79
2023/05/17 01:25:34;;;;;;;13.47;5.57;;;;;;;16.51;51.79;100445.69;124029;1099;104271;-79
2023/05/17 01:28:04;;;;;;;11.22;5.70;;;;;;;16.47;51.97;100439.48;124011;1099;104220;-78
2023/05/17 01:30:34;;;;;;;10.27;5.30;;;;;;;16.45;52.67;100443.85;124168;1099;104443;-78
2023/05/17 01:33:03;;;;;;;12.07;5.27;;;;;;;16.44;52.58;100436.80;124143;1099;104183;-77
2023/05/17 01:35:31;;;;;;;17.40;6.17;;;;;;;16.43;52.86;100442.95;124110;1099;104268;-78
2023/05/17 01:38:00;;;;;;;16.53;5.77;;;;;;;16.41;52.23;100442.06;124008;1099;104267;-79
2023/05/17 01:40:29;;;;;;;10.25;5.40;;;;;;;16.42;52.39;100437.64;124007;1099;104322;-78
2023/05/17 01:43:04;;;;;;;10.73;5.40;;;;;;;16.40;53.19;100442.92;123700;1099;104405;-78
2023/05/17 01:45:40;;;;;;;10.60;5.17;;;;;;;16.39;52.98;100449.08;123904;1099;104245;-79
2023/05/17 01:48:20;;;;;;;12.00;5.45;;;;;;;16.36;53.05;100441.10;123992;1098;104315;-78
2023/05/17 01:50:50;;;;;;;13.37;5.63;;;;;;;16.32;52.66;100440.19;124257;1099;104267;-79
2023/05/17 01:53:30;;;;;;;12.07;5.20;;;;;;;16.33;53.33;100441.98;124211;1099;104284;-79
2023/05/17 01:56:03;;;;;;;10.20;5.50;;;;;;;16.34;53.05;100449.03;124137;1099;104312;-79
2023/05/17 01:58:39;;;;;;;13.80;5.87;;;;;;;16.33;52.72;100441.98;123828;1099;104217;-79
2023/05/17 02:01:09;;;;;;;12.20;5.47;;;;;;;16.33;53.11;100441.06;123861;1099;104277;-79
2023/05/17 02:03:37;;;;;;;10.30;5.55;;;;;;;16.29;53.02;100444.58;123749;1099;104239;-79
2023/05/17 02:06:06;;;;;;;13.73;5.80;;;;;;;16.28;53.59;100438.41;123584;1099;104345;-78
2023/05/17 02:08:42;;;;;;;11.07;5.57;;;;;;;16.27;53.62;100439.27;123900;1099;104361;-78
2023/05/17 02:11:10;;;;;;;13.67;6.07;;;;;;;16.26;53.05;100448.06;124057;1099;104344;-79
2023/05/17 02:13:39;;;;;;;12.63;6.10;;;;;;;16.25;53.38;100443.66;124066;1099;104354;-77
2023/05/17 02:16:07;;;;;;;11.07;5.80;;;;;;;16.22;53.40;100437.42;123875;1099;104354;-78
2023/05/17 02:18:36;;;;;;;15.20;6.00;;;;;;;16.17;53.53;100438.27;123870;1099;104344;-77
2023/05/17 02:21:05;;;;;;;10.75;5.75;;;;;;;16.14;53.67;100443.53;123670;1099;104326;-79
2023/05/17 02:23:34;;;;;;;11.97;6.07;;;;;;;16.11;53.60;100435.55;123851;1099;104169;-78
2023/05/17 02:26:03;;;;;;;15.17;6.10;;;;;;;16.07;53.26;100439.02;123944;1099;104666;-77
2023/05/17 02:28:31;;;;;;;12.30;5.80;;;;;;;16.03;54.06;100445.13;123716;1099;104264;-77
2023/05/17 02:31:00;;;;;;;10.37;5.87;;;;;;;16.01;54.13;100449.53;123693;1099;104344;-78
2023/05/17 02:33:29;;;;;;;13.70;5.80;;;;;;;16.01;53.37;100449.53;123981;1099;104345;-78
2023/05/17 02:35:58;;;;;;;13.87;5.77;;;;;;;16.01;53.53;100456.59;123911;1099;104345;-79
2023/05/17 02:38:26;;;;;;;11.47;5.90;;;;;;;15.99;54.07;100456.57;123836;1099;104307;-78
2023/05/17 02:40:54;;;;;;;11.43;5.90;;;;;;;16.00;54.12;100458.33;124013;1099;104171;-79
2023/05/17 02:43:23;;;;;;;10.73;5.73;;;;;;;15.99;53.61;100461.86;124090;1098;104319;-78
2023/05/17 02:45:51;;;;;;;12.67;5.87;;;;;;;15.97;53.55;100459.20;123710;1099;104625;-79
2023/05/17 02:48:20;;;;;;;11.53;5.67;;;;;;;15.96;54.02;100461.83;123924;1099;104371;-78
2023/05/17 02:50:48;;;;;;;11.17;5.17;;;;;;;15.95;53.82;100452.98;124059;1099;104636;-79
2023/05/17 02:53:16;;;;;;;13.93;6.07;;;;;;;15.97;54.48;100468.88;123768;1099;104246;-80
2023/05/17 02:55:45;;;;;;;12.80;5.85;;;;;;;16.01;53.90;100468.05;123804;1099;104379;-81
2023/05/17 02:58:14;;;;;;;15.65;5.90;;;;;;;16.04;54.12;100464.57;124226;1099;104354;-79
2023/05/17 03:00:45;;;;;;;11.53;5.67;;;;;;;16.05;54.86;100459.30;124312;1099;104275;-79
2023/05/17 03:03:14;;;;;;;15.60;5.93;;;;;;;16.10;54.33;100462.00;124289;1099;104277;-80
2023/05/17 03:05:43;;;;;;;17.10;6.60;;;;;;;16.12;54.75;100463.78;124254;1098;104321;-80
2023/05/17 03:08:12;;;;;;;12.47;6.13;;;;;;;16.15;54.85;100461.17;124152;1099;104349;-80
2023/05/17 03:10:40;;;;;;;14.30;6.77;;;;;;;16.17;54.38;100463.84;124085;1099;104281;-80
2023/05/17 03:13:10;;;;;;;16.33;5.93;;;;;;;16.20;55.00;100463.87;124144;1099;104270;-80
2023/05/17 03:15:40;;;;;;;13.97;6.13;;;;;;;16.24;54.75;100462.17;123951;1099;104175;-78
2023/05/17 03:18:09;;;;;;;15.23;6.00;;;;;;;16.29;55.04;100465.75;123895;1099;104294;-79
2023/05/17 03:20:39;;;;;;;14.73;6.30;;;;;;;16.32;54.47;100466.67;123872;1099;104320;-80
2023/05/17 03:23:08;;;;;;;16.33;6.07;;;;;;;16.34;54.50;100464.92;124248;1099;104316;-78
2023/05/17 03:25:42;;;;;;;12.77;6.50;;;;;;;16.39;54.42;100458.80;123773;1099;104216;-78
2023/05/17 03:28:10;;;;;;;14.80;6.05;;;;;;;16.41;54.75;100464.98;123917;1099;110895;-79
2023/05/17 03:30:39;;;;;;;16.50;5.90;;;;;;;16.43;54.49;100460.63;124044;1099;104310;-80
2023/05/17 03:33:08;;;;;;;11.60;5.90;;;;;;;16.47;54.43;100471.27;123984;1099;104409;-79
2023/05/17 03:35:37;;;;;;;13.97;5.80;;;;;;;16.51;55.28;100469.53;124043;1099;104488;-80
2023/05/17 03:38:05;;;;;;;12.60;5.97;;;;;;;16.56;55.11;100474.87;124186;1099;104264;-78
2023/05/17 03:40:34;;;;;;;12.77;5.87;;;;;;;16.57;55.10;100477.55;123954;1099;104724;-80
2023/05/17 03:43:03;;;;;;;15.70;5.80;;;;;;;16.62;54.60;100474.95;123988;1099;104226;-80
2023/05/17 03:45:31;;;;;;;18.75;6.50;;;;;;;16.65;54.96;100475.86;124075;1099;104304;-81
2023/05/17 03:48:00;;;;;;;15.93;6.50;;;;;;;16.70;54.86;100471.52;124146;1099;104333;-80
2023/05/17 03:50:30;;;;;;;13.37;6.63;;;;;;;16.74;55.05;100469.77;124165;1099;104348;-79
2023/05/17 03:52:59;;;;;;;16.43;6.53;;;;;;;16.78;55.00;100482.19;123927;1099;104272;-79
2023/05/17 03:55:28;;;;;;;18.03;7.30;;;;;;;16.78;54.99;100483.93;124211;1098;104194;-79
2023/05/17 03:57:56;;;;;;;13.33;6.70;;;;;;;16.75;55.44;100490.11;123972;1099;104350;-81
2023/05/17 04:00:25;;;;;;;12.60;6.13;;;;;;;16.75;54.89;100491.84;123909;1099;104415;-77
2023/05/17 04:02:55;;;;;;;15.57;6.83;;;;;;;16.74;55.34;100485.67;123843;1099;104312;-82
2023/05/17 04:05:24;;;;;;;14.53;7.20;;;;;;;16.73;54.86;100493.60;124174;1099;104265;-81
2023/05/17 04:07:53;;;;;;;15.53;6.93;;;;;;;16.70;55.23;100492.71;123889;1099;104251;-81
2023/05/17 04:10:21;;;;;;;12.87;6.90;;;;;;;16.73;55.62;100496.25;124234;1099;104422;-80
2023/05/17 04:12:50;;;;;;;18.33;7.13;;;;;;;16.75;55.53;100495.41;124222;1098;104319;-80
2023/05/17 04:15:18;;;;;;;15.93;7.47;;;;;;;16.81;55.67;100503.42;124386;1099;104274;-82
2023/05/17 04:17:47;;;;;;;21.43;7.50;;;;;;;16.85;55.59;100499.91;124395;1099;103763;-82
2023/05/17 04:20:16;;;;;;;15.03;7.17;;;;;;;16.92;55.33;100494.70;124106;1099;104252;-77
2023/05/17 04:22:44;;;;;;;16.20;6.75;;;;;;;16.98;55.44;100500.94;123645;1098;104350;-77
2023/05/17 04:25:13;;;;;;;16.73;7.50;;;;;;;17.08;55.54;100504.59;124119;1098;104344;-78
2023/05/17 04:27:42;;;;;;;19.40;7.83;;;;;;;17.17;55.79;100506.41;124194;1099;104307;-78
2023/05/17 04:30:12;;;;;;;17.83;7.80;;;;;;;17.25;55.67;100505.62;123811;1099;104351;-77
2023/05/17 04:32:41;;;;;;;17.57;8.03;;;;;;;17.35;55.60;100511.00;124595;1099;104082;-79
2023/05/17 04:35:10;;;;;;;15.27;8.13;;;;;;;17.41;55.46;100511.92;124200;1099;104361;-76
2023/05/17 04:37:39;;;;;;;18.40;8.23;;;;;;;17.44;55.79;100511.08;124254;1099;104366;-78
2023/05/17 04:40:14;;;;;;;22.10;8.03;;;;;;;17.48;55.30;100510.20;124659;1099;104179;-77
2023/05/17 04:42:43;;;;;;;18.70;8.17;;;;;;;17.49;55.41;100509.34;124240;1099;104255;-77
2023/05/17 04:45:12;;;;;;;21.17;9.53;;;;;;;17.51;55.31;100512.00;124185;1099;104402;-75
2023/05/17 04:47:41;;;;;;;26.20;10.17;;;;;;;17.52;55.56;100513.79;124680;1099;104159;-76
2023/05/17 04:50:11;;;;;;;22.77;9.80;;;;;;;17.49;55.87;100509.34;124436;1099;104373;-81
2023/05/17 04:52:41;;;;;;;21.50;9.60;;;;;;;17.49;55.82;100511.98;124859;1099;104329;-75
2023/05/17 04:55:10;;;;;;;21.03;9.10;;;;;;;17.52;55.75;100509.36;124495;1100;104338;-73
2023/05/17 04:57:40;;;;;;;21.90;9.10;;;;;;;17.58;55.57;100511.18;124852;1099;104306;-76
2023/05/17 05:00:14;;;;;;;20.33;9.30;;;;;;;17.66;55.39;100512.11;125154;1098;104191;-74
2023/05/17 05:02:43;;;;;;;20.43;8.83;;;;;;;17.72;55.32;100512.16;124157;1102;104357;-74
2023/05/17 05:05:11;;;;;;;18.13;8.70;;;;;;;17.80;55.43;100509.55;124541;1099;104373;-78
2023/05/17 05:07:41;;;;;;;19.93;8.60;;;;;;;17.88;55.31;100498.98;125144;1099;104277;-77
2023/05/17 05:10:10;;;;;;;20.23;8.33;;;;;;;17.98;55.39;100503.48;124601;1100;104279;-74
2023/05/17 05:12:39;;;;;;;17.67;8.33;;;;;;;18.05;55.32;100507.08;124352;1099;104256;-75
2023/05/17 05:15:10;;;;;;;17.90;7.97;;;;;;;18.14;55.05;100504.47;124538;1099;104241;-75
2023/05/17 05:17:39;;;;;;;19.65;8.00;;;;;;;18.23;55.03;100509.83;124581;1099;102137;-77
2023/05/17 05:20:10;;;;;;;18.63;8.30;;;;;;;18.33;54.65;100511.61;124256;1099;104249;-78
2023/05/17 05:22:38;;;;;;;19.37;8.57;;;;;;;18.42;55.21;100510.78;125637;1099;104267;-79
2023/05/17 05:25:09;;;;;;;17.47;7.90;;;;;;;18.55;54.34;100505.51;124428;1099;104316;-79
2023/05/17 05:27:38;;;;;;;19.43;8.07;;;;;;;18.64;54.80;100509.07;124789;1099;102319;-76
2023/05/17 05:30:21;;;;;;;17.70;8.00;;;;;;;18.69;54.70;100515.27;124856;1099;104691;-76
2023/05/17 05:32:54;;;;;;;21.35;8.75;;;;;;;18.75;54.48;100514.41;125271;1099;104387;-76
2023/05/17 05:35:28;;;;;;;22.23;7.93;;;;;;;18.82;54.52;100516.22;124991;1099;104350;-75
2023/05/17 05:38:00;;;;;;;17.97;8.40;;;;;;;18.88;53.96;100520.67;126148;1099;102521;-77
2023/05/17 05:40:41;;;;;;;15.33;7.40;;;;;;;18.91;54.10;100522.46;126111;1099;103174;-78
2023/05/17 05:43:17;;;;;;;22.50;8.37;;;;;;;18.91;53.30;100519.80;126172;1098;102918;-81
2023/05/17 05:45:52;;;;;;;16.70;8.27;;;;;;;18.90;53.05;100528.65;126736;1099;102233;-78
2023/05/17 05:48:32;;;;;;;21.57;9.37;;;;;;;18.92;53.52;100526.91;126206;1099;102273;-78
2023/05/17 05:51:12;;;;;;;19.83;9.60;;;;;;;18.99;53.45;100523.35;126788;1098;118402;-79
2023/05/17 05:53:43;;;;;;;23.90;10.00;;;;;;;19.07;52.66;100528.68;126081;1099;102843;-80
2023/05/17 05:56:21;;;;;;;22.70;10.17;;;;;;;19.15;52.98;100516.27;126132;1099;101756;-78
2023/05/17 05:58:49;;;;;;;20.67;9.87;;;;;;;19.22;53.05;100520.72;124858;1098;102074;-78
2023/05/17 06:01:25;;;;;;;22.03;9.00;;;;;;;19.31;52.58;100520.72;124899;1099;103389;-77
2023/05/17 06:03:55;;;;;;;26.33;9.47;;;;;;;19.37;52.44;100526.05;125117;1099;104207;-78
2023/05/17 06:06:24;;;;;;;19.57;8.73;;;;;;;19.45;52.85;100522.51;125235;1099;105625;-79
2023/05/17 06:08:55;;;;;;;22.53;8.50;;;;;;;19.50;51.98;100518.94;124798;1099;104195;-80
2023/05/17 06:11:27;;;;;;;24.50;9.20;;;;;;;19.55;51.84;100525.13;125383;1099;104245;-79
2023/05/17 06:14:10;;;;;;;24.73;9.20;;;;;;;19.65;52.58;100525.13;125369;1099;104272;-78
2023/05/17 06:16:52;;;;;;;22.70;9.70;;;;;;;19.71;52.40;100520.70;126492;1099;102869;-79
2023/05/17 06:19:21;;;;;;;30.33;10.17;;;;;;;19.72;52.32;100518.91;126654;1098;102850;-79
2023/05/17 06:21:56;;;;;;;23.20;9.47;;;;;;;19.72;51.65;100522.45;125601;1099;104279;-78
2023/05/17 06:24:27;;;;;;;25.33;9.93;;;;;;;19.73;52.04;100518.03;124854;1099;103655;-76
2023/05/17 06:26:58;;;;;;;27.27;10.23;;;;;;;19.77;52.04;100517.16;125235;1099;103319;-75
2023/05/17 06:29:26;;;;;;;29.77;9.90;;;;;;;19.79;51.19;100522.48;125098;1099;102711;-77
2023/05/17 06:31:55;;;;;;;23.47;9.33;;;;;;;19.79;51.63;100522.48;125058;1099;104230;-76
2023/05/17 06:34:27;;;;;;;25.63;9.20;;;;;;;19.78;51.69;100528.72;124936;1099;103758;-78
2023/05/17 06:36:55;;;;;;;19.90;9.07;;;;;;;19.78;51.24;100534.04;124637;1098;101977;-78
2023/05/17 06:39:32;;;;;;;24.73;8.30;;;;;;;19.76;51.58;100523.36;125059;1099;104207;-78
2023/05/17 06:42:00;;;;;;;25.00;8.50;;;;;;;19.68;51.95;100523.37;124960;1099;104183;-79
2023/05/17 06:44:39;;;;;;;23.20;8.23;;;;;;;19.64;51.24;100524.25;124533;1099;104348;-78
2023/05/17 06:47:10;;;;;;;24.47;8.70;;;;;;;19.64;51.93;100523.38;124363;1099;104616;-81
2023/05/17 06:49:39;;;;;;;19.43;8.17;;;;;;;19.67;52.06;100526.91;124844;1099;103178;-78
2023/05/17 06:52:10;;;;;;;22.77;8.40;;;;;;;19.69;52.09;100522.45;124850;1099;102562;-80
2023/05/17 06:54:39;;;;;;;21.20;7.55;;;;;;;19.68;51.18;100526.03;125378;1099;104749;-80
2023/05/17 06:57:10;;;;;;;17.80;7.80;;;;;;;19.66;51.78;100534.89;125465;1099;103216;-80
2023/05/17 06:59:39;;;;;;;18.23;7.53;;;;;;;19.62;51.32;100531.36;125379;1099;104181;-81
2023/05/17 07:02:15;;;;;;;13.40;7.17;;;;;;;19.65;51.84;100526.03;124881;1099;103394;-78
2023/05/17 07:04:55;;;;;;;15.70;7.20;;;;;;;19.73;51.28;100528.69;126253;1099;104274;-79
2023/05/17 07:07:43;;;;;;;14.97;6.77;;;;;;;19.79;50.60;100531.38;125404;1099;104338;-80
2023/05/17 07:10:14;;;;;;;17.97;6.83;;;;;;;19.91;51.53;100526.03;126198;1099;102094;-80
2023/05/17 07:12:47;;;;;;;18.45;7.05;;;;;;;20.08;50.81;100520.62;124686;1099;104402;-81
2023/05/17 07:15:18;;;;;;;16.80;7.00;;;;;;;20.29;51.38;100518.80;125658;1099;104310;-80
2023/05/17 07:17:47;;;;;;;18.20;7.17;;;;;;;20.55;50.59;100523.11;124776;1099;102055;-84
2023/05/17 07:20:21;;;;;;;18.60;7.63;;;;;;;20.78;50.25;100521.23;124999;1099;102237;-77
2023/05/17 07:22:58;;;;;;;18.83;7.70;;;;;;;20.98;50.51;100520.23;124382;1102;105768;-79
2023/05/17 07:25:30;;;;;;;17.80;7.37;;;;;;;21.15;49.92;100518.33;124919;1099;104181;-80
2023/05/17 07:28:02;;;;;;;16.30;7.00;;;;;;;21.33;49.52;100521.73;124879;1099;103547;-80
2023/05/17 07:30:32;;;;;;;18.10;7.20;;;;;;;21.61;49.64;100516.20;124804;1102;104309;-79
2023/05/17 07:33:01;;;;;;;22.00;7.60;;;;;;;21.84;49.08;100519.52;124633;1099;104201;-75
2023/05/17 07:35:30;;;;;;;19.80;7.53;;;;;;;22.04;49.27;100515.75;125070;1099;104054;-79
2023/05/17 07:38:02;;;;;;;18.77;7.30;;;;;;;22.25;49.26;100507.48;125236;1099;104344;-79
2023/05/17 07:40:31;;;;;;;16.87;7.17;;;;;;;22.42;48.76;100514.42;124971;1099;104226;-80
2023/05/17 07:43:00;;;;;;;18.07;7.03;;;;;;;22.53;48.61;100507.17;124470;1099;104166;-83
2023/05/17 07:45:32;;;;;;;18.07;7.03;;;;;;;22.62;47.89;100506.14;125121;1099;104395;-78
2023/05/17 07:48:01;;;;;;;19.37;7.30;;;;;;;22.72;47.55;100509.56;125306;1099;104178;-80
2023/05/17 07:50:33;;;;;;;15.03;6.77;;;;;;;22.79;47.53;100516.60;124639;1099;103497;-75
2023/05/17 07:53:04;;;;;;;15.10;6.70;;;;;;;22.83;47.01;100507.64;125217;1098;104257;-78
2023/05/17 07:55:33;;;;;;;16.77;6.60;;;;;;;22.85;47.08;100513.84;125066;1099;104280;-77
2023/05/17 07:58:02;;;;;;;16.30;6.47;;;;;;;22.86;46.81;100512.95;125623;1099;102674;-79
2023/05/17 08:00:34;;;;;;;13.57;6.40;;;;;;;22.91;46.70;100513.75;125291;1099;104249;-82
2023/05/17 08:03:04;;;;;;;13.90;6.50;;;;;;;23.04;46.16;100516.24;126198;1099;102491;-80
2023/05/17 08:05:40;;;;;;;13.40;5.97;;;;;;;23.15;45.94;100517.89;126316;1099;101592;-83
2023/05/17 08:08:14;;;;;;;14.03;5.60;;;;;;;23.23;45.52;100515.05;126972;1098;101971;-79
2023/05/17 08:10:46;;;;;;;21.37;6.13;;;;;;;23.21;44.99;100516.88;126925;1099;101898;-80
2023/05/17 08:13:17;;;;;;;19.45;6.20;;;;;;;23.25;45.23;100521.29;125766;1099;103064;-84
2023/05/17 08:15:50;;;;;;;16.37;6.25;;;;;;;23.39;45.24;100517.48;126294;1099;101486;-82
2023/05/17 08:18:21;;;;;;;19.73;6.00;;;;;;;23.43;44.86;100509.37;126917;1098;101995;-80
2023/05/17 08:20:52;;;;;;;13.83;5.97;;;;;;;23.50;44.80;100512.84;126897;1098;102281;-79
2023/05/17 08:23:28;;;;;;;16.70;6.10;;;;;;;23.59;44.55;100504.66;125001;1102;104258;-80
2023/05/17 08:26:04;;;;;;;18.03;6.17;;;;;;;23.64;44.46;100508.13;125845;1099;104201;-79
2023/05/17 08:28:42;;;;;;;17.13;5.77;;;;;;;23.65;44.45;100509.91;125399;1099;104229;-79
2023/05/17 08:31:15;;;;;;;22.30;6.33;;;;;;;23.73;44.46;100506.17;126518;1099;102454;-80
2023/05/17 08:33:44;;;;;;;15.17;5.60;;;;;;;23.83;44.51;100507.78;125440;1099;102373;-81
2023/05/17 08:36:29;;;;;;;14.33;5.67;;;;;;;23.86;44.18;100499.72;125642;1099;103046;-80
2023/05/17 08:39:00;;;;;;;14.93;5.77;;;;;;;23.79;43.85;100508.73;125292;1099;104238;-78
2023/05/17 08:41:29;;;;;;;14.47;5.70;;;;;;;23.80;43.33;100508.71;125145;1099;104801;-76
2023/05/17 08:44:03;;;;;;;16.73;5.53;;;;;;;23.91;43.38;100495.14;124994;1099;104191;-78
2023/05/17 08:46:32;;;;;;;14.37;5.70;;;;;;;24.07;43.92;100494.84;125200;1099;104197;-79
2023/05/17 08:49:02;;;;;;;12.20;5.30;;;;;;;24.29;43.77;100490.79;124682;1099;104345;-78
2023/05/17 08:51:33;;;;;;;14.17;5.40;;;;;;;24.44;43.20;100500.31;124752;1099;104434;-77
2023/05/17 08:54:07;;;;;;;15.37;5.50;;;;;;;24.54;43.18;100492.95;125184;1099;104191;-79
2023/05/17 08:56:38;;;;;;;13.27;4.90;;;;;;;24.66;42.63;100494.52;125456;1099;102994;-77
2023/05/17 08:59:10;;;;;;;14.43;5.10;;;;;;;24.64;42.39;100494.55;125402;1099;102090;-77
2023/05/17 09:01:42;;;;;;;12.17;4.60;;;;;;;24.71;42.19;100495.28;125572;1099;102116;-77
2023/05/17 09:04:17;;;;;;;15.60;5.15;;;;;;;24.78;41.52;100487.97;125392;1099;104204;-79
2023/05/17 09:06:45;;;;;;;12.27;4.77;;;;;;;24.92;41.80;100486.73;125369;1097;102338;-76
2023/05/17 09:09:17;;;;;;;12.93;4.83;;;;;;;24.98;41.63;100485.72;125285;1099;104232;-78
2023/05/17 09:11:46;;;;;;;12.53;4.90;;;;;;;24.98;41.61;100480.35;125198;1099;104361;-79
2023/05/17 09:14:17;;;;;;;10.77;4.93;;;;;;;25.04;41.20;100485.57;125204;1099;104219;-82
2023/05/17 09:17:02;;;;;;;13.37;4.87;;;;;;;25.15;41.58;100481.72;125246;1099;103259;-77
2023/05/17 09:19:46;;;;;;;13.83;5.20;;;;;;;25.22;40.85;100483.34;125415;1099;104267;-78
2023/05/17 09:22:19;;;;;;;19.40;5.00;;;;;;;25.40;41.32;100482.00;125244;1099;104228;-80
2023/05/17 09:24:51;;;;;;;12.37;4.73;;;;;;;25.38;40.66;100483.86;125838;1098;102307;-76
2023/05/17 09:27:23;;;;;;;18.10;5.15;;;;;;;25.41;40.32;100479.28;125362;1099;104163;-80
2023/05/17 09:29:54;;;;;;;13.27;4.93;;;;;;;25.48;40.73;100482.70;125431;1099;104198;-80
2023/05/17 09:32:27;;;;;;;8.97;4.70;;;;;;;25.53;40.47;100477.22;125299;1099;103394;-78
2023/05/17 09:35:01;;;;;;;13.30;4.83;;;;;;;25.69;40.16;100480.36;125249;1099;104280;-80
2023/05/17 09:37:30;;;;;;;15.83;4.50;;;;;;;25.82;40.24;100465.64;124759;1102;104217;-77
2023/05/17 09:40:01;;;;;;;10.30;4.57;;;;;;;25.94;40.01;100462.61;125217;1099;102740;-79
2023/05/17 09:42:35;;;;;;;9.90;4.57;;;;;;;26.07;39.71;100459.60;125079;1099;102602;-80
2023/05/17 09:45:06;;;;;;;7.83;4.00;;;;;;;26.22;39.74;100461.84;125244;1099;104189;-81
2023/05/17 09:47:36;;;;;;;8.33;4.07;;;;;;;26.27;38.86;100464.40;126901;1099;102569;-81
2023/05/17 09:50:07;;;;;;;13.83;4.33;;;;;;;26.31;38.88;100458.01;127009;1098;101473;-81
2023/05/17 09:52:36;;;;;;;16.00;4.47;;;;;;;26.51;38.49;100454.71;126968;1098;101972;-83
2023/05/17 09:55:10;;;;;;;8.77;4.30;;;;;;;26.59;38.76;100447.27;126816;1099;102632;-82
2023/05/17 09:57:40;;;;;;;10.37;4.40;;;;;;;26.66;38.35;100439.91;126624;1098;102898;-82
2023/05/17 10:00:12;;;;;;;14.43;4.57;;;;;;;26.74;37.78;100451.33;126214;1098;102764;-81
2023/05/17 10:02:47;;;;;;;;;;;;;;;26.69;36.39;100439.81;126928;1099;102674;-82
2023/05/17 10:05:17;;;;;;;16.60;4.67;;;;;;;26.66;37.66;100440.81;126799;1099;102959;-81
2023/05/17 10:07:49;;;;;;;11.20;4.60;;;;;;;26.65;37.69;100441.73;126660;1098;102285;-79
2023/05/17 10:10:19;;;;;;;12.70;4.60;;;;;;;26.53;37.04;100442.08;126813;1098;102251;-79
2023/05/17 10:12:49;;;;;;;17.27;5.23;;;;;;;26.34;35.98;100439.95;126786;1099;102779;-80
2023/05/17 10:15:21;;;;;;;11.53;4.40;;;;;;;26.33;36.25;100434.63;126836;1098;101759;-80
2023/05/17 10:17:50;;;;;;;14.53;4.53;;;;;;;26.40;36.06;100427.23;126902;1099;102768;-80
2023/05/17 10:20:20;;;;;;;12.43;4.27;;;;;;;26.44;35.15;100439.67;126892;1098;102036;-79
2023/05/17 10:22:49;;;;;;;11.00;4.10;;;;;;;26.42;35.10;100437.03;126884;1099;101891;-79
2023/05/17 10:25:18;;;;;;;10.10;4.20;;;;;;;26.45;34.82;100434.25;126866;1098;101917;-79
2023/05/17 10:27:48;;;;;;;7.80;3.80;;;;;;;26.41;35.24;100445.15;126817;1098;102806;-78
2023/05/17 10:30:20;;;;;;;7.90;3.75;;;;;;;26.46;34.73;100437.81;118074;1099;10001295;-78
2023/05/17 10:32:49;;;;;;;10.93;4.10;;;;;;;26.52;35.30;100443.91;126863;1099;102310;-77
2023/05/17 10:35:34;;;;;;;10.43;3.90;;;;;;;26.47;34.95;100445.83;126875;1099;102317;-77
2023/05/17 10:38:02;;;;;;;11.93;4.40;;;;;;;26.42;34.71;100445.10;125303;1099;119332;-76
2023/05/17 10:40:39;;;;;;;11.07;4.07;;;;;;;26.30;34.05;100432.93;125088;1099;101995;-77
2023/05/17 10:43:12;;;;;;;9.57;4.07;;;;;;;26.22;33.79;100436.77;126758;1099;103645;-79
2023/05/17 10:45:46;;;;;;;9.97;3.90;;;;;;;26.24;34.27;100437.59;126926;1099;101934;-75
2023/05/17 10:48:17;;;;;;;9.77;4.07;;;;;;;26.37;33.83;100437.17;126900;1099;102007;-78
2023/05/17 10:50:47;;;;;;;10.50;4.20;;;;;;;26.43;34.01;100436.12;126909;1099;102227;-80
2023/05/17 10:53:15;;;;;;;11.30;4.07;;;;;;;26.54;33.54;100430.41;126533;1098;102179;-80
2023/05/17 10:55:47;;;;;;;9.00;3.80;;;;;;;26.67;32.72;100436.30;126253;1099;101989;-79
2023/05/17 10:58:19;;;;;;;9.43;3.67;;;;;;;26.73;32.46;100430.72;125292;1099;113291;-78
2023/05/17 11:00:50;;;;;;;12.67;4.23;;;;;;;26.80;32.28;100426.91;125362;1099;103548;-77
2023/05/17 11:03:28;;;;;;;12.07;3.97;;;;;;;26.91;31.89;100421.14;125299;1099;104239;-79
2023/05/17 11:06:20;;;;;;;10.60;4.30;;;;;;;27.08;31.98;100416.09;125641;1099;103093;-82
2023/05/17 11:09:15;;;;;;;9.75;4.10;;;;;;;27.16;31.63;100409.54;116780;1098;10001724;-83
2023/05/17 11:12:09;;;;;;;8.40;4.00;;;;;;;27.20;31.63;100411.20;125379;1099;104406;-77
2023/05/17 11:14:54;;;;;;;8.43;4.00;;;;;;;27.40;31.55;100407.84;125370;1099;102397;-81
2023/05/17 11:17:33;;;;;;;8.07;4.00;;;;;;;27.39;30.46;100409.64;125383;1099;101951;-79
2023/05/17 11:20:08;;;;;;;9.73;3.87;;;;;;;27.47;30.43;100403.98;125584;1098;103583;-79
2023/05/17 11:22:43;;;;;;;7.20;3.77;;;;;;;27.48;29.65;100400.36;124760;1099;102841;-78